sensor_id;sensor_type;location;lat;lon;timestamp;temperature;humidity
1956;DHT22;978;48.314;11.562;2022-10-31T00:01:19;22.70;95.00
1956;DHT22;978;48.314;11.562;2022-10-31T00:03:46;22.70;95.10
1956;DHT22;978;48.314;11.562;2022-10-31T00:06:14;22.70;95.10
1956;DHT22;978;48.314;11.562;2022-10-31T00:08:43;22.70;95.00
1956;DHT22;978;48.314;11.562;2022-10-31T00:11:10;22.70;95.10
1956;DHT22;978;48.314;11.562;2022-10-31T00:13:38;22.70;95.00
1956;DHT22;978;48.314;11.562;2022-10-31T00:16:12;22.70;95.10
1956;DHT22;978;48.314;11.562;2022-10-31T00:18:39;22.70;95.10
1956;DHT22;978;48.314;11.562;2022-10-31T00:21:05;22.70;94.90
1956;DHT22;978;48.314;11.562;2022-10-31T00:23:32;22.70;95.10
1956;DHT22;978;48.314;11.562;2022-10-31T00:26:00;22.70;95.10
1956;DHT22;978;48.314;11.562;2022-10-31T00:28:28;22.70;95.10
1956;DHT22;978;48.314;11.562;2022-10-31T00:30:59;22.70;95.10
1956;DHT22;978;48.314;11.562;2022-10-31T00:33:26;22.70;95.00
1956;DHT22;978;48.314;11.562;2022-10-31T00:35:53;22.70;95.00
1956;DHT22;978;48.314;11.562;2022-10-31T00:38:20;22.70;95.00
1956;DHT22;978;48.314;11.562;2022-10-31T00:40:46;22.70;95.00
1956;DHT22;978;48.314;11.562;2022-10-31T00:43:13;22.70;95.30
1956;DHT22;978;48.314;11.562;2022-10-31T00:45:41;22.70;94.90
1956;DHT22;978;48.314;11.562;2022-10-31T00:48:10;22.70;95.10
1956;DHT22;978;48.314;11.562;2022-10-31T00:50:37;22.70;95.10
1956;DHT22;978;48.314;11.562;2022-10-31T00:53:04;22.70;95.00
1956;DHT22;978;48.314;11.562;2022-10-31T00:55:31;22.70;95.10
1956;DHT22;978;48.314;11.562;2022-10-31T00:57:58;22.70;94.90
1956;DHT22;978;48.314;11.562;2022-10-31T01:00:25;22.70;94.90
1956;DHT22;978;48.314;11.562;2022-10-31T01:02:52;22.70;95.10
1956;DHT22;978;48.314;11.562;2022-10-31T01:05:20;22.70;95.20
1956;DHT22;978;48.314;11.562;2022-10-31T01:07:47;22.70;95.00
1956;DHT22;978;48.314;11.562;2022-10-31T01:10:13;22.70;95.00
1956;DHT22;978;48.314;11.562;2022-10-31T01:12:42;22.70;95.10
1956;DHT22;978;48.314;11.562;2022-10-31T01:15:10;22.70;95.20
1956;DHT22;978;48.314;11.562;2022-10-31T01:17:37;22.70;95.10
1956;DHT22;978;48.314;11.562;2022-10-31T01:20:05;22.70;95.30
1956;DHT22;978;48.314;11.562;2022-10-31T01:22:34;22.70;95.20
1956;DHT22;978;48.314;11.562;2022-10-31T01:25:01;22.70;95.20
1956;DHT22;978;48.314;11.562;2022-10-31T01:27:28;22.70;95.20
1956;DHT22;978;48.314;11.562;2022-10-31T01:29:54;22.70;95.10
1956;DHT22;978;48.314;11.562;2022-10-31T01:32:21;22.70;95.30
1956;DHT22;978;48.314;11.562;2022-10-31T01:34:48;22.70;95.20
1956;DHT22;978;48.314;11.562;2022-10-31T01:37:15;22.70;95.20
1956;DHT22;978;48.314;11.562;2022-10-31T01:39:43;22.70;95.20
1956;DHT22;978;48.314;11.562;2022-10-31T01:42:11;22.70;95.30
1956;DHT22;978;48.314;11.562;2022-10-31T01:44:55;22.70;95.30
1956;DHT22;978;48.314;11.562;2022-10-31T01:47:34;22.70;95.20
1956;DHT22;978;48.314;11.562;2022-10-31T01:50:06;22.70;95.20
1956;DHT22;978;48.314;11.562;2022-10-31T01:52:38;22.70;95.30
1956;DHT22;978;48.314;11.562;2022-10-31T01:55:11;22.70;95.10
1956;DHT22;978;48.314;11.562;2022-10-31T01:57:43;22.70;95.30
1956;DHT22;978;48.314;11.562;2022-10-31T02:00:12;22.70;95.30
1956;DHT22;978;48.314;11.562;2022-10-31T02:02:40;22.70;95.40
1956;DHT22;978;48.314;11.562;2022-10-31T02:05:10;22.70;95.30
1956;DHT22;978;48.314;11.562;2022-10-31T02:07:43;22.70;95.30
1956;DHT22;978;48.314;11.562;2022-10-31T02:10:13;22.70;95.30
1956;DHT22;978;48.314;11.562;2022-10-31T02:12:40;22.70;95.30
1956;DHT22;978;48.314;11.562;2022-10-31T02:15:09;22.70;95.30
1956;DHT22;978;48.314;11.562;2022-10-31T02:17:36;22.70;95.30
1956;DHT22;978;48.314;11.562;2022-10-31T02:20:12;22.70;95.20
1956;DHT22;978;48.314;11.562;2022-10-31T02:22:52;22.70;95.20
1956;DHT22;978;48.314;11.562;2022-10-31T02:25:58;22.70;95.30
1956;DHT22;978;48.314;11.562;2022-10-31T02:31:30;22.70;95.20
1956;DHT22;978;48.314;11.562;2022-10-31T02:34:03;22.70;95.20
1956;DHT22;978;48.314;11.562;2022-10-31T02:36:36;22.70;95.20
1956;DHT22;978;48.314;11.562;2022-10-31T02:39:11;22.70;95.20
1956;DHT22;978;48.314;11.562;2022-10-31T02:41:46;22.70;95.20
1956;DHT22;978;48.314;11.562;2022-10-31T02:44:17;22.70;95.20
1956;DHT22;978;48.314;11.562;2022-10-31T02:46:52;22.70;95.20
1956;DHT22;978;48.314;11.562;2022-10-31T02:49:26;22.70;95.20
1956;DHT22;978;48.314;11.562;2022-10-31T02:51:53;22.70;95.20
1956;DHT22;978;48.314;11.562;2022-10-31T02:54:22;22.70;95.20
1956;DHT22;978;48.314;11.562;2022-10-31T02:56:52;22.70;95.20
1956;DHT22;978;48.314;11.562;2022-10-31T02:59:23;22.70;95.20
1956;DHT22;978;48.314;11.562;2022-10-31T03:05:18;22.70;95.20
1956;DHT22;978;48.314;11.562;2022-10-31T03:07:53;22.60;95.20
1956;DHT22;978;48.314;11.562;2022-10-31T03:10:27;22.70;95.10
1956;DHT22;978;48.314;11.562;2022-10-31T03:13:01;22.70;95.10
1956;DHT22;978;48.314;11.562;2022-10-31T03:15:31;22.60;95.10
1956;DHT22;978;48.314;11.562;2022-10-31T03:18:02;22.60;95.10
1956;DHT22;978;48.314;11.562;2022-10-31T03:20:36;22.60;95.10
1956;DHT22;978;48.314;11.562;2022-10-31T03:23:08;22.60;95.20
1956;DHT22;978;48.314;11.562;2022-10-31T03:25:36;22.70;95.10
1956;DHT22;978;48.314;11.562;2022-10-31T03:28:04;22.60;95.00
1956;DHT22;978;48.314;11.562;2022-10-31T03:30:33;22.70;95.10
1956;DHT22;978;48.314;11.562;2022-10-31T03:33:04;22.60;95.00
1956;DHT22;978;48.314;11.562;2022-10-31T03:35:34;22.70;95.10
1956;DHT22;978;48.314;11.562;2022-10-31T03:38:03;22.70;95.20
1956;DHT22;978;48.314;11.562;2022-10-31T03:40:33;22.70;95.00
1956;DHT22;978;48.314;11.562;2022-10-31T03:43:04;22.60;95.20
1956;DHT22;978;48.314;11.562;2022-10-31T03:45:38;22.70;95.20
1956;DHT22;978;48.314;11.562;2022-10-31T03:48:06;22.70;95.10
1956;DHT22;978;48.314;11.562;2022-10-31T03:50:43;22.70;95.20
1956;DHT22;978;48.314;11.562;2022-10-31T03:53:16;22.70;95.20
1956;DHT22;978;48.314;11.562;2022-10-31T03:55:47;22.70;94.90
1956;DHT22;978;48.314;11.562;2022-10-31T03:58:20;22.70;95.20
1956;DHT22;978;48.314;11.562;2022-10-31T04:00:51;22.60;95.10
1956;DHT22;978;48.314;11.562;2022-10-31T04:03:22;22.60;95.00
1956;DHT22;978;48.314;11.562;2022-10-31T04:05:53;22.60;95.10
1956;DHT22;978;48.314;11.562;2022-10-31T04:08:24;22.60;95.00
1956;DHT22;978;48.314;11.562;2022-10-31T04:10:52;22.60;95.00
1956;DHT22;978;48.314;11.562;2022-10-31T04:13:25;22.70;95.40
1956;DHT22;978;48.314;11.562;2022-10-31T04:15:54;22.60;95.00
1956;DHT22;978;48.314;11.562;2022-10-31T04:18:22;22.60;95.10
1956;DHT22;978;48.314;11.562;2022-10-31T04:20:58;22.60;95.10
1956;DHT22;978;48.314;11.562;2022-10-31T04:23:26;22.70;95.10
1956;DHT22;978;48.314;11.562;2022-10-31T04:25:53;22.60;95.10
1956;DHT22;978;48.314;11.562;2022-10-31T04:28:20;22.60;95.10
1956;DHT22;978;48.314;11.562;2022-10-31T04:30:47;22.60;95.20
1956;DHT22;978;48.314;11.562;2022-10-31T04:33:14;22.60;95.10
1956;DHT22;978;48.314;11.562;2022-10-31T04:35:41;22.60;95.00
1956;DHT22;978;48.314;11.562;2022-10-31T04:38:09;22.60;94.90
1956;DHT22;978;48.314;11.562;2022-10-31T04:40:36;22.70;95.00
1956;DHT22;978;48.314;11.562;2022-10-31T04:43:02;22.60;95.10
1956;DHT22;978;48.314;11.562;2022-10-31T04:45:29;22.60;95.00
1956;DHT22;978;48.314;11.562;2022-10-31T04:47:56;22.60;95.00
1956;DHT22;978;48.314;11.562;2022-10-31T04:50:23;22.70;95.10
1956;DHT22;978;48.314;11.562;2022-10-31T04:52:50;22.60;95.20
1956;DHT22;978;48.314;11.562;2022-10-31T04:55:18;22.60;95.00
1956;DHT22;978;48.314;11.562;2022-10-31T04:57:46;22.60;95.10
1956;DHT22;978;48.314;11.562;2022-10-31T05:00:15;22.60;95.00
1956;DHT22;978;48.314;11.562;2022-10-31T05:02:43;22.60;95.00
1956;DHT22;978;48.314;11.562;2022-10-31T05:05:11;22.60;95.00
1956;DHT22;978;48.314;11.562;2022-10-31T05:07:41;22.60;94.90
1956;DHT22;978;48.314;11.562;2022-10-31T05:10:09;22.60;95.10
1956;DHT22;978;48.314;11.562;2022-10-31T05:12:37;22.60;95.10
1956;DHT22;978;48.314;11.562;2022-10-31T05:15:05;22.60;94.90
1956;DHT22;978;48.314;11.562;2022-10-31T05:17:32;22.60;95.00
1956;DHT22;978;48.314;11.562;2022-10-31T05:19:59;22.60;94.80
1956;DHT22;978;48.314;11.562;2022-10-31T05:22:25;22.60;94.90
1956;DHT22;978;48.314;11.562;2022-10-31T05:24:52;22.60;94.90
1956;DHT22;978;48.314;11.562;2022-10-31T05:27:19;22.60;94.70
1956;DHT22;978;48.314;11.562;2022-10-31T05:29:47;22.60;94.80
1956;DHT22;978;48.314;11.562;2022-10-31T05:32:14;22.70;94.70
1956;DHT22;978;48.314;11.562;2022-10-31T05:34:41;22.70;94.80
1956;DHT22;978;48.314;11.562;2022-10-31T05:37:08;22.60;94.60
1956;DHT22;978;48.314;11.562;2022-10-31T05:39:34;22.60;94.50
1956;DHT22;978;48.314;11.562;2022-10-31T05:42:01;22.70;94.70
1956;DHT22;978;48.314;11.562;2022-10-31T05:44:29;22.60;94.60
1956;DHT22;978;48.314;11.562;2022-10-31T05:46:57;22.70;94.30
1956;DHT22;978;48.314;11.562;2022-10-31T05:49:23;22.60;94.60
1956;DHT22;978;48.314;11.562;2022-10-31T05:51:50;22.70;93.60
1956;DHT22;978;48.314;11.562;2022-10-31T05:54:17;22.70;93.40
1956;DHT22;978;48.314;11.562;2022-10-31T05:56:43;22.70;93.00
1956;DHT22;978;48.314;11.562;2022-10-31T05:59:10;22.60;92.60
1956;DHT22;978;48.314;11.562;2022-10-31T06:01:37;22.60;92.60
1956;DHT22;978;48.314;11.562;2022-10-31T06:04:05;22.60;92.40
1956;DHT22;978;48.314;11.562;2022-10-31T06:06:32;22.60;92.60
1956;DHT22;978;48.314;11.562;2022-10-31T06:08:59;22.60;92.50
1956;DHT22;978;48.314;11.562;2022-10-31T06:11:25;22.60;92.00
1956;DHT22;978;48.314;11.562;2022-10-31T06:13:52;22.60;91.90
1956;DHT22;978;48.314;11.562;2022-10-31T06:16:19;22.70;91.90
1956;DHT22;978;48.314;11.562;2022-10-31T06:18:45;22.70;91.90
1956;DHT22;978;48.314;11.562;2022-10-31T06:21:13;22.70;91.90
1956;DHT22;978;48.314;11.562;2022-10-31T06:23:40;22.70;92.10
1956;DHT22;978;48.314;11.562;2022-10-31T06:26:07;22.70;91.90
1956;DHT22;978;48.314;11.562;2022-10-31T06:28:33;22.60;91.60
1956;DHT22;978;48.314;11.562;2022-10-31T06:31:00;22.60;91.60
1956;DHT22;978;48.314;11.562;2022-10-31T06:33:27;22.60;91.60
1956;DHT22;978;48.314;11.562;2022-10-31T06:35:53;22.60;91.50
1956;DHT22;978;48.314;11.562;2022-10-31T06:38:22;22.60;91.50
1956;DHT22;978;48.314;11.562;2022-10-31T06:40:48;22.60;91.40
1956;DHT22;978;48.314;11.562;2022-10-31T06:43:15;22.60;91.30
1956;DHT22;978;48.314;11.562;2022-10-31T06:45:42;22.60;91.50
1956;DHT22;978;48.314;11.562;2022-10-31T06:48:08;22.60;91.40
1956;DHT22;978;48.314;11.562;2022-10-31T06:50:35;22.60;91.60
1956;DHT22;978;48.314;11.562;2022-10-31T06:53:02;22.60;91.10
1956;DHT22;978;48.314;11.562;2022-10-31T06:55:30;22.60;91.40
1956;DHT22;978;48.314;11.562;2022-10-31T06:57:59;22.60;91.80
1956;DHT22;978;48.314;11.562;2022-10-31T07:00:28;22.60;92.10
1956;DHT22;978;48.314;11.562;2022-10-31T07:02:56;22.60;92.10
1956;DHT22;978;48.314;11.562;2022-10-31T07:05:23;22.60;91.70
1956;DHT22;978;48.314;11.562;2022-10-31T07:07:52;22.60;91.60
1956;DHT22;978;48.314;11.562;2022-10-31T07:10:19;22.60;90.90
1956;DHT22;978;48.314;11.562;2022-10-31T07:12:48;22.60;90.90
1956;DHT22;978;48.314;11.562;2022-10-31T07:15:14;22.60;91.30
1956;DHT22;978;48.314;11.562;2022-10-31T07:17:41;22.60;91.70
1956;DHT22;978;48.314;11.562;2022-10-31T07:20:09;22.60;92.10
1956;DHT22;978;48.314;11.562;2022-10-31T07:22:36;22.60;92.30
1956;DHT22;978;48.314;11.562;2022-10-31T07:25:04;22.60;92.40
1956;DHT22;978;48.314;11.562;2022-10-31T07:27:35;22.60;92.60
1956;DHT22;978;48.314;11.562;2022-10-31T07:30:06;22.60;92.60
1956;DHT22;978;48.314;11.562;2022-10-31T07:32:39;22.60;92.70
1956;DHT22;978;48.314;11.562;2022-10-31T07:35:07;22.60;92.90
1956;DHT22;978;48.314;11.562;2022-10-31T07:37:34;22.60;92.80
1956;DHT22;978;48.314;11.562;2022-10-31T07:40:01;22.60;92.90
1956;DHT22;978;48.314;11.562;2022-10-31T07:42:28;22.60;93.10
1956;DHT22;978;48.314;11.562;2022-10-31T07:44:55;22.60;93.10
1956;DHT22;978;48.314;11.562;2022-10-31T07:47:23;22.60;93.20
1956;DHT22;978;48.314;11.562;2022-10-31T07:49:49;22.60;93.20
1956;DHT22;978;48.314;11.562;2022-10-31T07:52:16;22.60;93.20
1956;DHT22;978;48.314;11.562;2022-10-31T07:54:43;22.60;93.30
1956;DHT22;978;48.314;11.562;2022-10-31T07:57:09;22.60;93.30
1956;DHT22;978;48.314;11.562;2022-10-31T07:59:36;22.60;93.30
1956;DHT22;978;48.314;11.562;2022-10-31T08:02:03;22.60;93.40
1956;DHT22;978;48.314;11.562;2022-10-31T08:04:31;22.60;93.30
1956;DHT22;978;48.314;11.562;2022-10-31T08:06:58;22.60;93.50
1956;DHT22;978;48.314;11.562;2022-10-31T08:09:24;22.60;93.40
1956;DHT22;978;48.314;11.562;2022-10-31T08:11:52;22.60;93.40
1956;DHT22;978;48.314;11.562;2022-10-31T08:14:19;22.60;93.50
1956;DHT22;978;48.314;11.562;2022-10-31T08:16:46;22.60;93.50
1956;DHT22;978;48.314;11.562;2022-10-31T08:19:13;22.60;93.50
1956;DHT22;978;48.314;11.562;2022-10-31T08:21:41;22.60;93.60
1956;DHT22;978;48.314;11.562;2022-10-31T08:24:08;22.60;93.50
1956;DHT22;978;48.314;11.562;2022-10-31T08:26:34;22.60;93.40
1956;DHT22;978;48.314;11.562;2022-10-31T08:29:01;22.60;93.50
1956;DHT22;978;48.314;11.562;2022-10-31T08:31:28;22.60;93.50
1956;DHT22;978;48.314;11.562;2022-10-31T08:33:55;22.60;93.30
1956;DHT22;978;48.314;11.562;2022-10-31T08:36:22;22.60;93.10
1956;DHT22;978;48.314;11.562;2022-10-31T08:38:50;22.60;93.10
1956;DHT22;978;48.314;11.562;2022-10-31T08:41:17;22.60;93.20
1956;DHT22;978;48.314;11.562;2022-10-31T08:43:44;22.60;92.90
1956;DHT22;978;48.314;11.562;2022-10-31T08:46:10;22.60;92.90
1956;DHT22;978;48.314;11.562;2022-10-31T08:48:37;22.60;92.80
1956;DHT22;978;48.314;11.562;2022-10-31T08:51:04;22.60;92.80
1956;DHT22;978;48.314;11.562;2022-10-31T08:53:31;22.60;92.60
1956;DHT22;978;48.314;11.562;2022-10-31T08:55:59;22.60;92.70
1956;DHT22;978;48.314;11.562;2022-10-31T08:58:26;22.60;92.50
1956;DHT22;978;48.314;11.562;2022-10-31T09:00:54;22.60;92.40
1956;DHT22;978;48.314;11.562;2022-10-31T09:03:23;22.60;92.30
1956;DHT22;978;48.314;11.562;2022-10-31T09:05:54;22.60;92.00
1956;DHT22;978;48.314;11.562;2022-10-31T09:08:21;22.60;91.90
1956;DHT22;978;48.314;11.562;2022-10-31T09:10:48;22.60;92.00
1956;DHT22;978;48.314;11.562;2022-10-31T09:13:18;22.60;91.90
1956;DHT22;978;48.314;11.562;2022-10-31T09:15:47;22.70;92.10
1956;DHT22;978;48.314;11.562;2022-10-31T09:18:16;22.60;91.70
1956;DHT22;978;48.314;11.562;2022-10-31T09:20:44;22.60;91.80
1956;DHT22;978;48.314;11.562;2022-10-31T09:23:13;22.60;91.70
1956;DHT22;978;48.314;11.562;2022-10-31T09:25:40;22.60;91.70
1956;DHT22;978;48.314;11.562;2022-10-31T09:28:10;22.60;91.60
1956;DHT22;978;48.314;11.562;2022-10-31T09:30:38;22.70;91.60
1956;DHT22;978;48.314;11.562;2022-10-31T09:33:07;22.70;91.50
1956;DHT22;978;48.314;11.562;2022-10-31T09:35:35;22.60;91.50
1956;DHT22;978;48.314;11.562;2022-10-31T09:38:04;22.60;91.50
1956;DHT22;978;48.314;11.562;2022-10-31T09:40:34;22.70;91.50
1956;DHT22;978;48.314;11.562;2022-10-31T09:43:07;22.70;91.50
1956;DHT22;978;48.314;11.562;2022-10-31T09:45:41;22.60;91.50
1956;DHT22;978;48.314;11.562;2022-10-31T09:51:16;22.70;91.50
1956;DHT22;978;48.314;11.562;2022-10-31T09:53:46;22.70;91.50
1956;DHT22;978;48.314;11.562;2022-10-31T09:56:16;22.70;91.50
1956;DHT22;978;48.314;11.562;2022-10-31T09:58:45;22.70;91.50
1956;DHT22;978;48.314;11.562;2022-10-31T10:01:28;22.70;91.50
1956;DHT22;978;48.314;11.562;2022-10-31T10:03:59;22.70;91.50
1956;DHT22;978;48.314;11.562;2022-10-31T10:06:29;22.70;91.50
1956;DHT22;978;48.314;11.562;2022-10-31T10:08:56;22.70;91.50
1956;DHT22;978;48.314;11.562;2022-10-31T10:11:37;22.70;91.50
1956;DHT22;978;48.314;11.562;2022-10-31T10:14:21;22.70;91.60
1956;DHT22;978;48.314;11.562;2022-10-31T10:17:06;22.70;91.60
1956;DHT22;978;48.314;11.562;2022-10-31T10:22:31;22.70;91.60
1956;DHT22;978;48.314;11.562;2022-10-31T10:25:14;22.70;91.60
1956;DHT22;978;48.314;11.562;2022-10-31T10:27:50;22.70;91.60
1956;DHT22;978;48.314;11.562;2022-10-31T10:30:21;22.70;91.60
1956;DHT22;978;48.314;11.562;2022-10-31T10:32:51;22.70;91.60
1956;DHT22;978;48.314;11.562;2022-10-31T10:35:25;22.70;91.60
1956;DHT22;978;48.314;11.562;2022-10-31T10:37:58;22.70;91.80
1956;DHT22;978;48.314;11.562;2022-10-31T10:40:27;22.70;91.60
1956;DHT22;978;48.314;11.562;2022-10-31T10:43:00;22.70;91.60
1956;DHT22;978;48.314;11.562;2022-10-31T10:45:51;22.70;91.60
1956;DHT22;978;48.314;11.562;2022-10-31T10:48:44;22.70;91.60
1956;DHT22;978;48.314;11.562;2022-10-31T10:51:20;22.70;91.60
1956;DHT22;978;48.314;11.562;2022-10-31T10:53:56;22.70;91.70
1956;DHT22;978;48.314;11.562;2022-10-31T10:56:36;22.70;91.70
1956;DHT22;978;48.314;11.562;2022-10-31T10:59:09;22.70;91.70
1956;DHT22;978;48.314;11.562;2022-10-31T11:01:38;22.70;91.70
1956;DHT22;978;48.314;11.562;2022-10-31T11:04:21;22.70;91.70
1956;DHT22;978;48.314;11.562;2022-10-31T11:06:57;22.70;91.70
1956;DHT22;978;48.314;11.562;2022-10-31T11:09:24;22.70;91.70
1956;DHT22;978;48.314;11.562;2022-10-31T11:11:51;22.70;91.70
1956;DHT22;978;48.314;11.562;2022-10-31T11:14:18;22.70;91.70
1956;DHT22;978;48.314;11.562;2022-10-31T11:16:48;22.70;91.70
1956;DHT22;978;48.314;11.562;2022-10-31T11:19:19;22.70;91.70
1956;DHT22;978;48.314;11.562;2022-10-31T11:21:47;22.70;91.90
1956;DHT22;978;48.314;11.562;2022-10-31T11:24:16;22.70;91.70
1956;DHT22;978;48.314;11.562;2022-10-31T11:26:45;22.70;91.80
1956;DHT22;978;48.314;11.562;2022-10-31T11:29:15;22.70;91.80
1956;DHT22;978;48.314;11.562;2022-10-31T11:31:42;22.70;91.80
1956;DHT22;978;48.314;11.562;2022-10-31T11:34:18;22.70;91.80
1956;DHT22;978;48.314;11.562;2022-10-31T11:36:45;22.70;91.80
1956;DHT22;978;48.314;11.562;2022-10-31T11:39:18;22.70;91.80
1956;DHT22;978;48.314;11.562;2022-10-31T11:41:46;22.70;91.80
1956;DHT22;978;48.314;11.562;2022-10-31T11:44:16;22.70;91.90
1956;DHT22;978;48.314;11.562;2022-10-31T11:46:47;22.70;91.80
1956;DHT22;978;48.314;11.562;2022-10-31T11:49:19;22.70;91.90
1956;DHT22;978;48.314;11.562;2022-10-31T11:51:48;22.70;91.90
1956;DHT22;978;48.314;11.562;2022-10-31T11:54:21;22.70;91.90
1956;DHT22;978;48.314;11.562;2022-10-31T11:56:48;22.70;91.80
1956;DHT22;978;48.314;11.562;2022-10-31T11:59:25;22.70;91.80
1956;DHT22;978;48.314;11.562;2022-10-31T12:01:53;22.60;91.80
1956;DHT22;978;48.314;11.562;2022-10-31T12:04:30;22.70;91.90
1956;DHT22;978;48.314;11.562;2022-10-31T12:06:57;22.70;91.80
1956;DHT22;978;48.314;11.562;2022-10-31T12:09:26;22.70;91.80
1956;DHT22;978;48.314;11.562;2022-10-31T12:12:10;22.70;91.90
1956;DHT22;978;48.314;11.562;2022-10-31T12:14:46;22.70;91.80
1956;DHT22;978;48.314;11.562;2022-10-31T12:17:19;22.70;91.80
1956;DHT22;978;48.314;11.562;2022-10-31T12:20:00;22.70;91.90
1956;DHT22;978;48.314;11.562;2022-10-31T12:22:36;22.70;91.90
1956;DHT22;978;48.314;11.562;2022-10-31T12:25:28;22.70;91.80
1956;DHT22;978;48.314;11.562;2022-10-31T12:28:18;22.60;91.80
1956;DHT22;978;48.314;11.562;2022-10-31T12:31:00;22.70;91.90
1956;DHT22;978;48.314;11.562;2022-10-31T12:33:39;22.70;91.90
1956;DHT22;978;48.314;11.562;2022-10-31T12:36:25;22.70;92.00
1956;DHT22;978;48.314;11.562;2022-10-31T12:39:06;22.70;92.00
1956;DHT22;978;48.314;11.562;2022-10-31T12:41:49;22.70;92.00
1956;DHT22;978;48.314;11.562;2022-10-31T12:47:27;22.70;92.00
1956;DHT22;978;48.314;11.562;2022-10-31T12:50:10;22.60;92.00
1956;DHT22;978;48.314;11.562;2022-10-31T12:52:56;22.60;92.00
1956;DHT22;978;48.314;11.562;2022-10-31T12:55:39;22.70;92.00
1956;DHT22;978;48.314;11.562;2022-10-31T12:58:10;22.70;92.00
1956;DHT22;978;48.314;11.562;2022-10-31T13:00:44;22.60;91.90
1956;DHT22;978;48.314;11.562;2022-10-31T13:03:25;22.60;91.90
1956;DHT22;978;48.314;11.562;2022-10-31T13:05:57;22.70;92.00
1956;DHT22;978;48.314;11.562;2022-10-31T13:08:30;22.70;92.00
1956;DHT22;978;48.314;11.562;2022-10-31T13:11:05;22.70;91.90
1956;DHT22;978;48.314;11.562;2022-10-31T13:13:37;22.60;91.90
1956;DHT22;978;48.314;11.562;2022-10-31T13:16:16;22.60;92.00
1956;DHT22;978;48.314;11.562;2022-10-31T13:18:46;22.70;91.90
1956;DHT22;978;48.314;11.562;2022-10-31T13:21:18;22.60;91.90
1956;DHT22;978;48.314;11.562;2022-10-31T13:23:49;22.70;92.00
1956;DHT22;978;48.314;11.562;2022-10-31T13:26:21;22.60;91.90
1956;DHT22;978;48.314;11.562;2022-10-31T13:28:56;22.60;91.90
1956;DHT22;978;48.314;11.562;2022-10-31T13:31:24;22.60;91.90
1956;DHT22;978;48.314;11.562;2022-10-31T13:33:53;22.70;92.00
1956;DHT22;978;48.314;11.562;2022-10-31T13:36:27;22.60;92.00
1956;DHT22;978;48.314;11.562;2022-10-31T13:39:01;22.60;92.10
1956;DHT22;978;48.314;11.562;2022-10-31T13:41:38;22.60;92.10
1956;DHT22;978;48.314;11.562;2022-10-31T13:44:13;22.60;92.00
1956;DHT22;978;48.314;11.562;2022-10-31T13:46:41;22.60;92.00
1956;DHT22;978;48.314;11.562;2022-10-31T13:49:35;22.70;92.10
1956;DHT22;978;48.314;11.562;2022-10-31T13:52:13;22.60;92.00
1956;DHT22;978;48.314;11.562;2022-10-31T13:54:43;22.70;92.10
1956;DHT22;978;48.314;11.562;2022-10-31T13:57:16;22.60;92.10
1956;DHT22;978;48.314;11.562;2022-10-31T13:59:48;22.60;92.20
1956;DHT22;978;48.314;11.562;2022-10-31T14:02:17;22.60;92.10
1956;DHT22;978;48.314;11.562;2022-10-31T14:04:47;22.60;92.10
1956;DHT22;978;48.314;11.562;2022-10-31T14:07:17;22.60;92.20
1956;DHT22;978;48.314;11.562;2022-10-31T14:09:54;22.60;92.10
1956;DHT22;978;48.314;11.562;2022-10-31T14:12:25;22.70;92.10
1956;DHT22;978;48.314;11.562;2022-10-31T14:14:55;22.60;92.20
1956;DHT22;978;48.314;11.562;2022-10-31T14:17:25;22.60;92.20
1956;DHT22;978;48.314;11.562;2022-10-31T14:19:59;22.60;92.10
1956;DHT22;978;48.314;11.562;2022-10-31T14:22:29;22.60;92.10
1956;DHT22;978;48.314;11.562;2022-10-31T14:24:57;22.60;92.30
1956;DHT22;978;48.314;11.562;2022-10-31T14:27:43;22.60;92.10
1956;DHT22;978;48.314;11.562;2022-10-31T14:30:18;22.60;92.20
1956;DHT22;978;48.314;11.562;2022-10-31T14:32:50;22.60;92.10
1956;DHT22;978;48.314;11.562;2022-10-31T14:35:20;22.60;92.20
1956;DHT22;978;48.314;11.562;2022-10-31T14:38:06;22.60;92.10
1956;DHT22;978;48.314;11.562;2022-10-31T14:40:42;22.60;92.20
1956;DHT22;978;48.314;11.562;2022-10-31T14:43:26;22.60;92.30
1956;DHT22;978;48.314;11.562;2022-10-31T14:46:00;22.60;92.20
1956;DHT22;978;48.314;11.562;2022-10-31T14:48:53;22.60;92.20
1956;DHT22;978;48.314;11.562;2022-10-31T14:51:29;22.60;92.20
1956;DHT22;978;48.314;11.562;2022-10-31T14:53:58;22.60;92.20
1956;DHT22;978;48.314;11.562;2022-10-31T14:56:29;22.60;92.20
1956;DHT22;978;48.314;11.562;2022-10-31T14:58:58;22.60;92.20
1956;DHT22;978;48.314;11.562;2022-10-31T15:01:28;22.60;92.20
1956;DHT22;978;48.314;11.562;2022-10-31T15:04:00;22.60;92.20
1956;DHT22;978;48.314;11.562;2022-10-31T15:06:30;22.60;92.40
1956;DHT22;978;48.314;11.562;2022-10-31T15:09:02;22.60;92.40
1956;DHT22;978;48.314;11.562;2022-10-31T15:11:37;22.60;92.40
1956;DHT22;978;48.314;11.562;2022-10-31T15:14:20;22.60;92.60
1956;DHT22;978;48.314;11.562;2022-10-31T15:16:48;22.60;92.30
1956;DHT22;978;48.314;11.562;2022-10-31T15:19:21;22.60;92.30
1956;DHT22;978;48.314;11.562;2022-10-31T15:21:51;22.60;92.20
1956;DHT22;978;48.314;11.562;2022-10-31T15:24:18;22.60;92.30
1956;DHT22;978;48.314;11.562;2022-10-31T15:26:49;22.60;92.30
1956;DHT22;978;48.314;11.562;2022-10-31T15:29:18;22.60;92.30
1956;DHT22;978;48.314;11.562;2022-10-31T15:31:50;22.60;92.30
1956;DHT22;978;48.314;11.562;2022-10-31T15:34:21;22.60;92.50
1956;DHT22;978;48.314;11.562;2022-10-31T15:36:49;22.60;92.30
1956;DHT22;978;48.314;11.562;2022-10-31T15:39:16;22.60;92.30
1956;DHT22;978;48.314;11.562;2022-10-31T15:41:50;22.60;92.20
1956;DHT22;978;48.314;11.562;2022-10-31T15:44:21;22.60;92.40
1956;DHT22;978;48.314;11.562;2022-10-31T15:46:54;22.60;92.30
1956;DHT22;978;48.314;11.562;2022-10-31T15:49:32;22.60;92.30
1956;DHT22;978;48.314;11.562;2022-10-31T15:52:06;22.60;92.40
1956;DHT22;978;48.314;11.562;2022-10-31T15:54:46;22.60;92.40
1956;DHT22;978;48.314;11.562;2022-10-31T15:57:15;22.60;92.40
1956;DHT22;978;48.314;11.562;2022-10-31T15:59:45;22.60;92.40
1956;DHT22;978;48.314;11.562;2022-10-31T16:02:13;22.60;92.40
1956;DHT22;978;48.314;11.562;2022-10-31T16:04:48;22.60;92.40
1956;DHT22;978;48.314;11.562;2022-10-31T16:07:17;22.60;92.40
1956;DHT22;978;48.314;11.562;2022-10-31T16:09:55;22.60;92.40
1956;DHT22;978;48.314;11.562;2022-10-31T16:12:31;22.60;92.30
1956;DHT22;978;48.314;11.562;2022-10-31T16:14:58;22.60;92.40
1956;DHT22;978;48.314;11.562;2022-10-31T16:17:26;22.60;92.50
1956;DHT22;978;48.314;11.562;2022-10-31T16:19:56;22.60;92.30
1956;DHT22;978;48.314;11.562;2022-10-31T16:22:26;22.60;92.40
1956;DHT22;978;48.314;11.562;2022-10-31T16:24:59;22.60;92.40
1956;DHT22;978;48.314;11.562;2022-10-31T16:27:31;22.60;92.40
1956;DHT22;978;48.314;11.562;2022-10-31T16:30:00;22.60;92.30
1956;DHT22;978;48.314;11.562;2022-10-31T16:32:32;22.60;92.40
1956;DHT22;978;48.314;11.562;2022-10-31T16:35:02;22.60;92.40
1956;DHT22;978;48.314;11.562;2022-10-31T16:37:42;22.60;92.40
1956;DHT22;978;48.314;11.562;2022-10-31T16:40:10;22.60;92.40